createdAt,value
2023-01-27T00:00:17.369Z,66.50
2023-01-27T00:03:23.894Z,68.00
2023-01-27T00:06:30.227Z,68.20
2023-01-27T00:12:58.899Z,70.50
2023-01-27T00:16:05.539Z,63.50
2023-01-27T00:19:11.899Z,66.80
2023-01-27T00:25:39.987Z,71.20
2023-01-27T00:32:10.184Z,67.90
2023-01-27T00:35:17.610Z,68.20
2023-01-27T00:38:24.047Z,67.50
2023-01-27T00:41:30.314Z,69.60
2023-01-27T00:44:36.756Z,68.80
2023-01-27T00:47:43.024Z,65.30
2023-01-27T00:53:54.093Z,61.90
2023-01-27T01:00:05.562Z,62.20
2023-01-27T01:03:11.995Z,65.70
2023-01-27T01:06:20.229Z,66.60
2023-01-27T01:09:26.913Z,66.20
2023-01-27T01:12:33.221Z,58.90
2023-01-27T01:18:45.642Z,61.40
2023-01-27T01:21:52.077Z,58.80
2023-01-27T01:24:58.459Z,60.30
2023-01-27T01:28:06.114Z,62.20
2023-01-27T01:31:14.880Z,58.10
2023-01-27T01:34:21.331Z,62.10
2023-01-27T01:37:27.861Z,61.50
2023-01-27T01:40:34.575Z,61.00
2023-01-27T01:43:40.970Z,59.60
2023-01-27T01:46:47.369Z,61.10
2023-01-27T01:49:53.782Z,62.30
2023-01-27T01:59:18.231Z,64.20
2023-01-27T02:02:26.845Z,65.00
2023-01-27T02:05:39.297Z,63.30
2023-01-27T02:08:47.631Z,65.60
2023-01-27T02:11:54.706Z,65.20
2023-01-27T02:15:02.260Z,68.40
2023-01-27T02:18:09.449Z,64.70
2023-01-27T02:21:16.288Z,65.50
2023-01-27T02:24:25.516Z,60.50
2023-01-27T02:27:32.086Z,64.40
2023-01-27T02:30:38.742Z,67.00
2023-01-27T02:33:45.134Z,68.50
2023-01-27T02:40:01.038Z,66.20
2023-01-27T02:43:08.006Z,65.70
2023-01-27T02:46:14.488Z,66.10
2023-01-27T02:49:20.955Z,69.20
2023-01-27T02:52:27.324Z,65.20
2023-01-27T02:58:38.618Z,68.20
2023-01-27T03:01:45.156Z,65.10
2023-01-27T03:04:51.464Z,69.70
2023-01-27T03:11:02.467Z,68.60
2023-01-27T03:14:10.124Z,71.90
2023-01-27T03:17:34.210Z,68.00
2023-01-27T03:20:40.892Z,70.80
2023-01-27T03:23:49.292Z,73.80
2023-01-27T03:26:55.603Z,72.60
2023-01-27T03:30:02.400Z,73.20
2023-01-27T03:33:09.777Z,73.50
2023-01-27T03:36:33.925Z,76.50
2023-01-27T03:39:57.681Z,69.60
2023-01-27T03:43:21.803Z,69.80
2023-01-27T03:46:28.258Z,71.00
2023-01-27T03:49:34.686Z,69.90
2023-01-27T03:52:41.706Z,69.90
2023-01-27T03:55:48.196Z,68.40
2023-01-27T03:58:54.466Z,72.10
2023-01-27T04:02:19.395Z,68.70
2023-01-27T04:05:43.431Z,69.20
2023-01-27T04:08:49.797Z,71.30
2023-01-27T04:15:05.546Z,69.60
2023-01-27T04:18:12.193Z,72.20
2023-01-27T04:21:18.590Z,71.00
2023-01-27T04:27:32.675Z,65.30
2023-01-27T04:30:39.116Z,70.50
2023-01-27T04:33:45.970Z,67.40
2023-01-27T04:36:52.433Z,67.30
2023-01-27T04:39:58.591Z,64.80
2023-01-27T04:43:05.685Z,69.40
2023-01-27T04:46:12.467Z,71.10
2023-01-27T04:49:19.520Z,66.30
2023-01-27T04:52:25.905Z,71.30
2023-01-27T04:55:32.122Z,66.90
2023-01-27T05:01:43.373Z,66.40
2023-01-27T05:04:49.765Z,62.20
2023-01-27T05:07:56.232Z,63.50
2023-01-27T05:11:02.415Z,59.50
2023-01-27T05:14:08.855Z,65.10
2023-01-27T05:17:15.261Z,65.30
2023-01-27T05:20:21.943Z,67.30
2023-01-27T05:23:37.814Z,66.90
2023-01-27T05:26:44.139Z,67.20
2023-01-27T05:32:58.237Z,67.60
2023-01-27T05:36:06.580Z,68.80
2023-01-27T05:39:14.526Z,64.00
2023-01-27T05:42:20.674Z,65.40
2023-01-27T05:45:26.988Z,62.40
2023-01-27T05:51:40.924Z,70.10
2023-01-27T05:54:47.269Z,64.30
2023-01-27T06:00:58.934Z,67.60
2023-01-27T06:04:05.846Z,69.70
2023-01-27T06:07:12.265Z,66.70
2023-01-27T06:10:19.433Z,62.60
2023-01-27T06:13:27.105Z,63.00
2023-01-27T06:16:33.475Z,63.50
2023-01-27T06:19:40.107Z,65.10
2023-01-27T06:22:46.756Z,67.50
2023-01-27T06:25:53.197Z,62.80
2023-01-27T06:29:00.524Z,65.80
2023-01-27T06:32:07.589Z,65.80
2023-01-27T06:35:14.742Z,67.10
2023-01-27T06:38:21.365Z,59.90
2023-01-27T06:44:32.605Z,62.10
2023-01-27T06:47:38.986Z,59.90
2023-01-27T06:50:45.487Z,66.50
2023-01-27T06:53:51.924Z,69.60
2023-01-27T07:00:02.810Z,67.00
2023-01-27T07:03:12.101Z,66.00
2023-01-27T07:06:19.166Z,64.80
2023-01-27T07:09:25.632Z,66.70
2023-01-27T07:12:32.477Z,62.10
2023-01-27T07:15:39.365Z,59.20
2023-01-27T07:18:45.751Z,55.60
2023-01-27T07:21:52.135Z,52.10
2023-01-27T07:28:04.561Z,57.50
2023-01-27T07:31:11.374Z,55.00
2023-01-27T07:34:18.091Z,52.20
2023-01-27T07:37:24.533Z,53.20
2023-01-27T07:40:31.080Z,53.50
2023-01-27T07:43:37.530Z,44.60
2023-01-27T07:46:43.907Z,46.90
2023-01-27T07:52:55.037Z,47.10
2023-01-27T07:56:03.487Z,44.90
2023-01-27T07:59:11.211Z,45.10
2023-01-27T08:02:17.641Z,47.00
2023-01-27T08:05:23.956Z,42.20
2023-01-27T08:11:35.254Z,44.10
2023-01-27T08:14:41.606Z,42.70
2023-01-27T08:20:53.257Z,43.30
2023-01-27T08:24:00.132Z,44.40
2023-01-27T08:27:08.265Z,44.00
2023-01-27T08:30:16.082Z,43.00
2023-01-27T08:33:24.211Z,45.80
2023-01-27T08:36:30.671Z,40.50
2023-01-27T08:39:37.654Z,41.40
2023-01-27T08:42:43.939Z,43.40
2023-01-27T08:48:54.917Z,43.10
2023-01-27T08:52:01.307Z,38.80
2023-01-27T08:55:08.114Z,42.60
2023-01-27T08:58:14.550Z,40.00
2023-01-27T09:01:22.119Z,39.80
2023-01-27T09:04:30.320Z,39.50
2023-01-27T09:07:36.618Z,38.40
2023-01-27T09:10:44.169Z,39.50
2023-01-27T09:13:50.518Z,40.10
2023-01-27T09:20:01.777Z,40.20
2023-01-27T09:23:08.201Z,40.10
2023-01-27T09:26:14.462Z,38.30
2023-01-27T09:32:26.027Z,39.70
2023-01-27T09:35:37.898Z,39.80
2023-01-27T09:38:48.929Z,40.30
2023-01-27T09:42:18.813Z,39.70
2023-01-27T09:45:57.403Z,37.20
2023-01-27T09:49:24.120Z,37.40
2023-01-27T09:52:50.508Z,38.80
2023-01-27T09:56:03.331Z,40.90
2023-01-27T09:59:30.606Z,39.80
2023-01-27T10:03:00.970Z,40.40
2023-01-27T10:06:34.633Z,39.80
2023-01-27T10:10:03.967Z,40.70
2023-01-27T10:13:23.356Z,40.30
2023-01-27T10:16:52.184Z,40.90
2023-01-27T10:20:14.254Z,40.90
2023-01-27T10:23:33.149Z,40.90
2023-01-27T10:26:43.562Z,42.40
2023-01-27T10:29:57.876Z,41.90
2023-01-27T10:33:14.114Z,41.50
2023-01-27T10:36:27.883Z,39.80
2023-01-27T10:39:47.140Z,42.80
2023-01-27T10:43:02.192Z,38.30
2023-01-27T10:46:16.342Z,39.40
2023-01-27T10:49:27.449Z,40.70
2023-01-27T10:52:40.197Z,41.20
2023-01-27T10:55:54.257Z,40.70
2023-01-27T10:59:07.527Z,41.60
2023-01-27T11:02:24.582Z,41.00
2023-01-27T11:05:36.732Z,42.40
2023-01-27T11:08:46.801Z,42.60
2023-01-27T11:11:55.344Z,43.80
2023-01-27T11:15:03.334Z,43.00
2023-01-27T11:18:19.281Z,43.00
2023-01-27T11:21:30.526Z,43.90
2023-01-27T11:24:46.177Z,43.50
2023-01-27T11:28:21.665Z,45.10
2023-01-27T11:31:41.840Z,45.80
2023-01-27T11:34:58.846Z,47.40
2023-01-27T11:38:15.299Z,45.70
2023-01-27T11:41:22.319Z,46.40
2023-01-27T11:44:32.851Z,47.10
2023-01-27T11:47:42.814Z,47.10
2023-01-27T11:50:50.276Z,45.10
2023-01-27T11:54:06.900Z,48.80
2023-01-27T11:57:21.531Z,46.60
2023-01-27T12:00:34.407Z,47.20
2023-01-27T12:03:52.590Z,50.10
2023-01-27T12:07:04.522Z,49.50
2023-01-27T12:10:25.753Z,52.60
2023-01-27T12:13:32.040Z,49.90
2023-01-27T12:19:50.730Z,45.10
2023-01-27T12:26:04.021Z,45.70
2023-01-27T12:29:20.846Z,41.60
2023-01-27T12:32:35.756Z,45.80
2023-01-27T12:35:48.977Z,39.70
2023-01-27T12:38:57.640Z,42.10
2023-01-27T12:42:04.057Z,40.20
2023-01-27T12:45:35.144Z,41.20
2023-01-27T12:48:50.063Z,42.80
2023-01-27T12:51:58.230Z,41.80
2023-01-27T12:55:06.365Z,45.30
2023-01-27T12:58:32.939Z,40.80
2023-01-27T13:01:41.561Z,46.40
2023-01-27T13:04:52.928Z,45.10
2023-01-27T13:07:59.802Z,43.10
2023-01-27T13:11:06.785Z,45.00
2023-01-27T13:14:19.796Z,43.80
2023-01-27T13:17:38.002Z,49.20
2023-01-27T13:20:48.630Z,45.00
2023-01-27T13:23:57.376Z,47.50
2023-01-27T13:27:06.527Z,49.70
2023-01-27T13:30:23.117Z,43.10
2023-01-27T13:33:40.633Z,41.40
2023-01-27T13:36:50.142Z,38.90
2023-01-27T13:40:05.061Z,42.40
2023-01-27T13:43:16.691Z,39.60
2023-01-27T13:46:28.701Z,40.00
2023-01-27T13:49:42.850Z,39.50
2023-01-27T13:52:51.794Z,36.40
2023-01-27T13:56:17.214Z,35.70
2023-01-27T13:59:40.657Z,39.50
2023-01-27T14:03:00.232Z,37.70
2023-01-27T14:06:32.331Z,38.90
2023-01-27T14:09:52.149Z,42.70
2023-01-27T14:13:11.948Z,40.30
2023-01-27T14:16:26.833Z,39.70
2023-01-27T14:19:46.235Z,39.80
2023-01-27T14:23:05.695Z,38.10
2023-01-27T14:26:23.904Z,37.80
2023-01-27T14:29:37.142Z,37.40
2023-01-27T14:32:51.834Z,38.40
2023-01-27T14:36:07.337Z,32.10
2023-01-27T14:39:22.592Z,38.20
2023-01-27T14:42:38.392Z,38.10
2023-01-27T14:45:49.684Z,38.00
2023-01-27T14:49:07.831Z,37.40
2023-01-27T14:52:27.925Z,39.00
2023-01-27T14:55:45.554Z,40.50
2023-01-27T14:59:04.311Z,40.40
2023-01-27T15:02:26.602Z,31.80
2023-01-27T15:05:40.121Z,33.00
2023-01-27T15:08:55.507Z,34.50
2023-01-27T15:12:26.580Z,35.40
2023-01-27T15:15:45.615Z,34.30
2023-01-27T15:19:14.691Z,37.90
2023-01-27T15:22:44.703Z,36.40
2023-01-27T15:25:55.986Z,35.70
2023-01-27T15:29:02.999Z,32.20
2023-01-27T15:32:29.215Z,34.50
2023-01-27T15:35:44.186Z,36.70
2023-01-27T15:39:18.886Z,32.90
2023-01-27T15:42:51.794Z,33.80
2023-01-27T15:45:59.606Z,34.20
2023-01-27T15:49:14.383Z,32.80
2023-01-27T15:52:31.209Z,31.70
2023-01-27T15:55:48.847Z,32.90
2023-01-27T15:59:04.950Z,34.30
2023-01-27T16:05:26.508Z,34.10
2023-01-27T16:08:40.176Z,30.90
2023-01-27T16:11:58.896Z,33.30
2023-01-27T16:15:23.874Z,29.10
2023-01-27T16:18:46.027Z,36.00
2023-01-27T16:21:57.845Z,33.70
2023-01-27T16:25:20.629Z,30.80
2023-01-27T16:28:30.758Z,30.00
2023-01-27T16:31:38.287Z,28.60
2023-01-27T16:34:49.279Z,30.00
2023-01-27T16:38:06.225Z,29.90
2023-01-27T16:41:22.807Z,27.50
2023-01-27T16:44:37.050Z,31.80
2023-01-27T16:47:49.848Z,26.20
2023-01-27T16:51:06.605Z,30.30
2023-01-27T16:54:25.136Z,28.30
2023-01-27T16:57:36.117Z,27.80
2023-01-27T17:00:44.852Z,24.40
2023-01-27T17:03:54.410Z,27.40
2023-01-27T17:07:13.422Z,32.10
2023-01-27T17:10:33.947Z,29.00
2023-01-27T17:13:48.732Z,26.70
2023-01-27T17:16:55.543Z,24.30
2023-01-27T17:20:06.385Z,26.40
2023-01-27T17:23:23.790Z,25.20
2023-01-27T17:26:30.675Z,22.20
2023-01-27T17:29:40.227Z,22.30
2023-01-27T17:32:51.077Z,22.70
2023-01-27T17:36:10.154Z,23.30
2023-01-27T17:39:26.767Z,26.30
2023-01-27T17:42:34.828Z,24.10
2023-01-27T17:45:43.249Z,31.70
2023-01-27T17:48:54.706Z,21.30
2023-01-27T17:52:02.388Z,21.70
2023-01-27T17:55:16.577Z,22.60
2023-01-27T17:58:27.315Z,22.10
2023-01-27T18:01:34.794Z,22.20
2023-01-27T18:04:43.723Z,23.60
2023-01-27T18:07:50.709Z,22.40
2023-01-27T18:11:12.393Z,24.20
2023-01-27T18:14:21.730Z,22.10
2023-01-27T18:17:32.121Z,23.10
2023-01-27T18:20:39.315Z,22.30
2023-01-27T18:23:48.664Z,21.00
2023-01-27T18:26:55.340Z,23.50
2023-01-27T18:30:07.647Z,21.00
2023-01-27T18:33:14.526Z,22.50
2023-01-27T18:36:26.092Z,22.40
2023-01-27T18:39:37.501Z,23.70
2023-01-27T18:42:44.758Z,21.80
2023-01-27T18:45:51.157Z,24.50
2023-01-27T18:48:59.739Z,22.70
2023-01-27T18:52:11.820Z,21.40
2023-01-27T18:55:20.607Z,22.50
2023-01-27T18:58:27.072Z,22.50
2023-01-27T19:01:35.265Z,23.90
2023-01-27T19:04:43.296Z,48.20
2023-01-27T19:07:50.078Z,25.10
2023-01-27T19:10:56.625Z,24.90
2023-01-27T19:14:03.017Z,24.50
2023-01-27T19:17:18.189Z,24.20
2023-01-27T19:20:26.674Z,28.10
2023-01-27T19:23:33.439Z,21.90
2023-01-27T19:26:39.810Z,21.80
2023-01-27T19:32:50.915Z,32.90
2023-01-27T19:35:58.737Z,23.30
2023-01-27T19:39:15.212Z,23.40
2023-01-27T19:42:21.628Z,27.90
2023-01-27T19:45:30.117Z,24.40
2023-01-27T19:48:36.465Z,23.70
2023-01-27T19:54:47.977Z,26.10
2023-01-27T19:57:54.852Z,24.60
2023-01-27T20:01:01.293Z,24.40
2023-01-27T20:04:07.826Z,26.60
2023-01-27T20:07:15.242Z,24.90
2023-01-27T20:10:24.295Z,28.00
2023-01-27T20:13:30.690Z,24.00
2023-01-27T20:16:37.330Z,26.40
2023-01-27T20:19:43.633Z,27.00
2023-01-27T20:25:56.791Z,29.90
2023-01-27T20:29:03.202Z,27.60
2023-01-27T20:32:09.976Z,29.90
2023-01-27T20:35:18.207Z,31.10
2023-01-27T20:38:24.966Z,28.70
2023-01-27T20:41:31.238Z,29.60
2023-01-27T20:47:42.630Z,31.10
2023-01-27T20:50:58.575Z,24.10
2023-01-27T20:54:05.918Z,24.40
2023-01-27T20:57:12.281Z,26.00
2023-01-27T21:03:26.253Z,24.90
2023-01-27T21:06:32.576Z,27.30
2023-01-27T21:12:43.528Z,25.70
2023-01-27T21:15:51.320Z,24.90
2023-01-27T21:18:57.899Z,26.60
2023-01-27T21:22:04.359Z,25.00
2023-01-27T21:25:11.585Z,25.60
2023-01-27T21:28:17.886Z,26.90
2023-01-27T21:34:30.824Z,27.50
2023-01-27T21:40:42.570Z,25.80
2023-01-27T21:47:12.825Z,28.20
2023-01-27T21:50:19.883Z,25.00
2023-01-27T21:53:26.832Z,28.40
2023-01-27T21:56:33.136Z,24.80
2023-01-27T22:02:44.599Z,27.90
2023-01-27T22:05:50.863Z,24.00
2023-01-27T22:12:01.890Z,27.30
2023-01-27T22:18:13.898Z,25.90
2023-01-27T22:21:20.276Z,27.50
2023-01-27T22:27:31.310Z,27.60
2023-01-27T22:33:42.716Z,26.60
2023-01-27T22:36:49.845Z,27.50
2023-01-27T22:39:56.020Z,26.40
2023-01-27T22:43:09.314Z,29.40
2023-01-27T22:46:15.598Z,28.50
2023-01-27T22:52:26.560Z,27.80
2023-01-27T22:58:38.533Z,25.20
2023-01-27T23:01:44.886Z,24.10
2023-01-27T23:04:51.266Z,25.90
2023-01-27T23:11:05.047Z,26.40
2023-01-27T23:14:11.524Z,27.80
2023-01-27T23:17:17.911Z,26.30
2023-01-27T23:20:24.774Z,26.80
2023-01-27T23:23:31.347Z,26.80
2023-01-27T23:26:37.677Z,27.80
2023-01-27T23:32:48.875Z,28.60
2023-01-27T23:36:00.347Z,28.90
2023-01-27T23:39:07.010Z,26.30
2023-01-27T23:42:13.350Z,27.70
2023-01-27T23:48:25.259Z,29.50
2023-01-27T23:51:31.895Z,33.30
2023-01-27T23:54:38.317Z,30.50
2023-01-27T23:57:44.805Z,29.50
